sensor_id;sensor_type;location;lat;lon;timestamp;pressure;altitude;pressure_sealevel;temperature;humidity
40940;BME280;26666;50.156;7.700;2023-05-01T00:03:42;100606.28;;;11.72;86.52
40940;BME280;26666;50.156;7.700;2023-05-01T00:08:44;100599.03;;;11.74;86.42
40940;BME280;26666;50.156;7.700;2023-05-01T00:13:47;100596.53;;;11.73;87.24
40940;BME280;26666;50.156;7.700;2023-05-01T00:18:48;100593.03;;;11.72;86.78
40940;BME280;26666;50.156;7.700;2023-05-01T00:23:50;100584.28;;;11.72;86.62
40940;BME280;26666;50.156;7.700;2023-05-01T00:28:53;100582.16;;;11.66;87.48
40940;BME280;26666;50.156;7.700;2023-05-01T00:33:54;100571.44;;;11.77;87.51
40940;BME280;26666;50.156;7.700;2023-05-01T00:38:56;100566.53;;;11.62;89.42
40940;BME280;26666;50.156;7.700;2023-05-01T00:43:59;100559.59;;;11.71;88.63
40940;BME280;26666;50.156;7.700;2023-05-01T00:49:01;100558.22;;;11.77;90.02
40940;BME280;26666;50.156;7.700;2023-05-01T00:54:04;100548.63;;;11.76;89.30
40940;BME280;26666;50.156;7.700;2023-05-01T00:59:07;100546.22;;;11.73;90.07
40940;BME280;26666;50.156;7.700;2023-05-01T01:04:09;100541.34;;;11.68;90.46
40940;BME280;26666;50.156;7.700;2023-05-01T01:09:16;100534.22;;;11.69;89.24
40940;BME280;26666;50.156;7.700;2023-05-01T01:14:28;100532.53;;;11.58;90.33
40940;BME280;26666;50.156;7.700;2023-05-01T01:25:27;100518.31;;;11.59;89.67
40940;BME280;26666;50.156;7.700;2023-05-01T01:30:38;100513.69;;;11.51;89.84
40940;BME280;26666;50.156;7.700;2023-05-01T01:35:53;100513.28;;;11.46;90.16
40940;BME280;26666;50.156;7.700;2023-05-01T01:40:57;100517.84;;;11.44;89.79
40940;BME280;26666;50.156;7.700;2023-05-01T01:46:02;100509.22;;;11.52;89.92
40940;BME280;26666;50.156;7.700;2023-05-01T01:51:11;100500.56;;;11.40;89.17
40940;BME280;26666;50.156;7.700;2023-05-01T01:56:15;100501.78;;;11.36;90.44
40940;BME280;26666;50.156;7.700;2023-05-01T02:01:18;100501.25;;;11.42;90.86
40940;BME280;26666;50.156;7.700;2023-05-01T02:06:23;100502.94;;;11.43;91.16
40940;BME280;26666;50.156;7.700;2023-05-01T02:11:26;100496.38;;;11.37;91.82
40940;BME280;26666;50.156;7.700;2023-05-01T02:16:30;100488.69;;;11.34;92.02
40940;BME280;26666;50.156;7.700;2023-05-01T02:21:35;100491.09;;;11.37;91.73
40940;BME280;26666;50.156;7.700;2023-05-01T02:26:41;100482.31;;;11.37;92.01
40940;BME280;26666;50.156;7.700;2023-05-01T02:31:43;100486.25;;;11.42;92.49
40940;BME280;26666;50.156;7.700;2023-05-01T02:36:47;100480.09;;;11.42;91.43
40940;BME280;26666;50.156;7.700;2023-05-01T02:41:51;100472.69;;;11.36;93.76
40940;BME280;26666;50.156;7.700;2023-05-01T02:46:55;100468.63;;;11.32;92.93
40940;BME280;26666;50.156;7.700;2023-05-01T02:52:01;100468.38;;;11.35;93.91
40940;BME280;26666;50.156;7.700;2023-05-01T02:57:03;100473.81;;;11.33;94.75
40940;BME280;26666;50.156;7.700;2023-05-01T03:02:05;100457.06;;;11.23;92.88
40940;BME280;26666;50.156;7.700;2023-05-01T03:07:08;100457.47;;;11.28;95.02
40940;BME280;26666;50.156;7.700;2023-05-01T03:12:09;100450.81;;;11.34;94.04
40940;BME280;26666;50.156;7.700;2023-05-01T03:17:11;100447.63;;;11.40;94.92
40940;BME280;26666;50.156;7.700;2023-05-01T03:22:14;100437.94;;;11.50;94.78
40940;BME280;26666;50.156;7.700;2023-05-01T03:27:16;100434.19;;;11.53;94.50
40940;BME280;26666;50.156;7.700;2023-05-01T03:32:17;100430.53;;;11.54;95.00
40940;BME280;26666;50.156;7.700;2023-05-01T03:37:21;100424.00;;;11.48;95.07
40940;BME280;26666;50.156;7.700;2023-05-01T03:42:22;100435.94;;;11.33;95.24
40940;BME280;26666;50.156;7.700;2023-05-01T03:47:24;100425.63;;;11.30;95.52
40940;BME280;26666;50.156;7.700;2023-05-01T03:52:27;100424.25;;;11.35;95.81
40940;BME280;26666;50.156;7.700;2023-05-01T03:57:29;100422.16;;;11.39;95.34
40940;BME280;26666;50.156;7.700;2023-05-01T04:02:30;100430.50;;;11.34;95.67
40940;BME280;26666;50.156;7.700;2023-05-01T04:07:34;100424.06;;;11.17;96.17
40940;BME280;26666;50.156;7.700;2023-05-01T04:12:35;100421.97;;;11.21;95.90
40940;BME280;26666;50.156;7.700;2023-05-01T04:17:37;100420.28;;;11.20;96.11
40940;BME280;26666;50.156;7.700;2023-05-01T04:22:41;100420.84;;;11.14;95.82
40940;BME280;26666;50.156;7.700;2023-05-01T04:27:42;100424.97;;;11.07;97.17
40940;BME280;26666;50.156;7.700;2023-05-01T04:32:44;100426.28;;;11.22;97.90
40940;BME280;26666;50.156;7.700;2023-05-01T04:37:47;100424.97;;;11.07;98.05
40940;BME280;26666;50.156;7.700;2023-05-01T04:42:49;100415.59;;;10.93;97.49
40940;BME280;26666;50.156;7.700;2023-05-01T04:47:50;100417.06;;;10.85;97.69
40940;BME280;26666;50.156;7.700;2023-05-01T04:52:53;100417.28;;;10.94;100.00
40940;BME280;26666;50.156;7.700;2023-05-01T04:57:55;100424.03;;;10.87;99.23
40940;BME280;26666;50.156;7.700;2023-05-01T05:02:57;100422.16;;;10.98;99.61
40940;BME280;26666;50.156;7.700;2023-05-01T05:08:00;100410.72;;;10.88;99.29
40940;BME280;26666;50.156;7.700;2023-05-01T05:13:02;100417.56;;;11.00;100.00
40940;BME280;26666;50.156;7.700;2023-05-01T05:18:03;100415.66;;;11.12;99.59
40940;BME280;26666;50.156;7.700;2023-05-01T05:23:06;100409.81;;;11.09;99.90
40940;BME280;26666;50.156;7.700;2023-05-01T05:28:09;100419.19;;;11.22;100.00
40940;BME280;26666;50.156;7.700;2023-05-01T05:33:10;100416.16;;;11.27;100.00
40940;BME280;26666;50.156;7.700;2023-05-01T05:38:14;100415.88;;;11.30;100.00
40940;BME280;26666;50.156;7.700;2023-05-01T05:43:15;100411.41;;;11.21;100.00
40940;BME280;26666;50.156;7.700;2023-05-01T05:48:17;100414.34;;;11.28;100.00
40940;BME280;26666;50.156;7.700;2023-05-01T05:53:20;100404.78;;;11.36;100.00
40940;BME280;26666;50.156;7.700;2023-05-01T05:58:26;100406.28;;;11.39;100.00
40940;BME280;26666;50.156;7.700;2023-05-01T06:03:27;100402.66;;;11.40;100.00
40940;BME280;26666;50.156;7.700;2023-05-01T06:08:30;100397.13;;;11.53;100.00
40940;BME280;26666;50.156;7.700;2023-05-01T06:13:32;100405.91;;;11.53;100.00
40940;BME280;26666;50.156;7.700;2023-05-01T06:18:34;100398.84;;;11.63;99.26
40940;BME280;26666;50.156;7.700;2023-05-01T06:23:37;100399.09;;;11.60;100.00
40940;BME280;26666;50.156;7.700;2023-05-01T06:28:39;100391.97;;;11.51;100.00
40940;BME280;26666;50.156;7.700;2023-05-01T06:33:41;100387.81;;;11.58;100.00
40940;BME280;26666;50.156;7.700;2023-05-01T06:38:43;100383.25;;;11.80;100.00
40940;BME280;26666;50.156;7.700;2023-05-01T06:43:45;100382.56;;;11.88;100.00
40940;BME280;26666;50.156;7.700;2023-05-01T06:48:47;100379.81;;;11.89;100.00
40940;BME280;26666;50.156;7.700;2023-05-01T06:53:50;100379.63;;;11.91;100.00
40940;BME280;26666;50.156;7.700;2023-05-01T06:58:52;100365.56;;;12.00;100.00
40940;BME280;26666;50.156;7.700;2023-05-01T07:03:53;100370.00;;;12.38;100.00
40940;BME280;26666;50.156;7.700;2023-05-01T07:08:56;100373.34;;;12.78;96.33
40940;BME280;26666;50.156;7.700;2023-05-01T07:13:59;100362.91;;;12.76;90.28
40940;BME280;26666;50.156;7.700;2023-05-01T07:19:01;100362.06;;;12.76;89.25
40940;BME280;26666;50.156;7.700;2023-05-01T07:24:05;100366.06;;;12.90;90.21
40940;BME280;26666;50.156;7.700;2023-05-01T07:29:06;100377.06;;;12.95;91.11
40940;BME280;26666;50.156;7.700;2023-05-01T07:34:08;100361.56;;;13.00;90.69
40940;BME280;26666;50.156;7.700;2023-05-01T07:39:11;100362.16;;;13.21;89.82
40940;BME280;26666;50.156;7.700;2023-05-01T07:44:13;100355.13;;;13.30;89.95
40940;BME280;26666;50.156;7.700;2023-05-01T07:49:15;100359.63;;;13.20;89.50
40940;BME280;26666;50.156;7.700;2023-05-01T07:54:18;100360.66;;;13.09;89.46
40940;BME280;26666;50.156;7.700;2023-05-01T07:59:19;100350.84;;;13.19;88.25
40940;BME280;26666;50.156;7.700;2023-05-01T08:04:21;100358.34;;;13.24;87.08
40940;BME280;26666;50.156;7.700;2023-05-01T08:09:24;100350.94;;;13.28;83.43
40940;BME280;26666;50.156;7.700;2023-05-01T08:14:26;100348.00;;;13.31;83.11
40940;BME280;26666;50.156;7.700;2023-05-01T08:19:28;100347.72;;;13.34;82.77
40940;BME280;26666;50.156;7.700;2023-05-01T08:24:31;100331.59;;;13.63;82.76
40940;BME280;26666;50.156;7.700;2023-05-01T08:29:33;100325.16;;;13.84;82.35
40940;BME280;26666;50.156;7.700;2023-05-01T08:34:34;100326.94;;;14.01;82.45
40940;BME280;26666;50.156;7.700;2023-05-01T08:39:37;100325.25;;;14.00;82.56
40940;BME280;26666;50.156;7.700;2023-05-01T08:44:40;100326.31;;;14.07;81.78
40940;BME280;26666;50.156;7.700;2023-05-01T08:49:43;100326.19;;;14.09;79.33
40940;BME280;26666;50.156;7.700;2023-05-01T08:54:48;100316.22;;;14.11;81.72
40940;BME280;26666;50.156;7.700;2023-05-01T08:59:50;100316.72;;;14.14;80.39
40940;BME280;26666;50.156;7.700;2023-05-01T09:04:53;100313.00;;;14.25;79.14
40940;BME280;26666;50.156;7.700;2023-05-01T09:09:56;100313.13;;;14.24;81.52
40940;BME280;26666;50.156;7.700;2023-05-01T09:14:58;100304.44;;;14.39;79.66
40940;BME280;26666;50.156;7.700;2023-05-01T09:20:00;100308.13;;;14.47;80.24
40940;BME280;26666;50.156;7.700;2023-05-01T09:25:05;100298.25;;;14.57;76.40
40940;BME280;26666;50.156;7.700;2023-05-01T09:30:07;100299.06;;;14.31;81.64
40940;BME280;26666;50.156;7.700;2023-05-01T09:35:11;100295.22;;;14.52;78.02
40940;BME280;26666;50.156;7.700;2023-05-01T09:40:14;100282.69;;;14.36;80.75
40940;BME280;26666;50.156;7.700;2023-05-01T09:45:16;100287.47;;;14.32;82.58
40940;BME280;26666;50.156;7.700;2023-05-01T09:50:29;100282.34;;;14.39;82.96
40940;BME280;26666;50.156;7.700;2023-05-01T09:55:32;100281.50;;;14.65;78.82
40940;BME280;26666;50.156;7.700;2023-05-01T10:00:46;100277.78;;;14.92;76.31
40940;BME280;26666;50.156;7.700;2023-05-01T10:05:48;100273.63;;;14.55;81.34
40940;BME280;26666;50.156;7.700;2023-05-01T10:11:01;100270.44;;;14.77;82.46
40940;BME280;26666;50.156;7.700;2023-05-01T10:16:04;100264.28;;;14.77;84.05
40940;BME280;26666;50.156;7.700;2023-05-01T10:21:06;100265.59;;;15.40;77.07
40940;BME280;26666;50.156;7.700;2023-05-01T10:26:12;100266.03;;;15.11;78.38
40940;BME280;26666;50.156;7.700;2023-05-01T10:31:15;100266.41;;;15.41;77.01
40940;BME280;26666;50.156;7.700;2023-05-01T10:36:20;100260.97;;;14.83;80.85
40940;BME280;26666;50.156;7.700;2023-05-01T10:42:00;100248.09;;;14.62;82.76
40940;BME280;26666;50.156;7.700;2023-05-01T10:53:16;100250.94;;;15.52;75.43
40940;BME280;26666;50.156;7.700;2023-05-01T10:58:58;100240.47;;;15.51;73.84
40940;BME280;26666;50.156;7.700;2023-05-01T11:04:02;100243.56;;;14.97;78.83
40940;BME280;26666;50.156;7.700;2023-05-01T11:09:34;100240.63;;;14.66;81.34
40940;BME280;26666;50.156;7.700;2023-05-01T11:15:03;100236.78;;;15.19;76.32
40940;BME280;26666;50.156;7.700;2023-05-01T11:20:06;100237.59;;;15.11;74.81
40940;BME280;26666;50.156;7.700;2023-05-01T11:25:17;100234.06;;;14.94;71.87
40940;BME280;26666;50.156;7.700;2023-05-01T11:30:21;100229.75;;;15.02;72.02
40940;BME280;26666;50.156;7.700;2023-05-01T11:35:27;100225.13;;;14.61;73.13
40940;BME280;26666;50.156;7.700;2023-05-01T11:40:30;100236.38;;;14.55;73.84
40940;BME280;26666;50.156;7.700;2023-05-01T11:45:35;100232.88;;;14.46;74.33
40940;BME280;26666;50.156;7.700;2023-05-01T11:50:37;100227.56;;;14.46;75.20
40940;BME280;26666;50.156;7.700;2023-05-01T11:55:39;100227.41;;;14.48;74.36
40940;BME280;26666;50.156;7.700;2023-05-01T12:00:43;100234.19;;;14.42;75.57
40940;BME280;26666;50.156;7.700;2023-05-01T12:05:45;100228.69;;;14.44;73.26
40940;BME280;26666;50.156;7.700;2023-05-01T12:10:48;100234.38;;;14.91;70.86
40940;BME280;26666;50.156;7.700;2023-05-01T12:15:53;100234.91;;;14.95;75.60
40940;BME280;26666;50.156;7.700;2023-05-01T12:20:55;100227.88;;;14.43;80.74
40940;BME280;26666;50.156;7.700;2023-05-01T12:25:57;100219.03;;;14.34;86.98
40940;BME280;26666;50.156;7.700;2023-05-01T12:31:01;100226.34;;;14.32;88.39
40940;BME280;26666;50.156;7.700;2023-05-01T12:36:09;100230.13;;;14.30;88.90
40940;BME280;26666;50.156;7.700;2023-05-01T12:41:11;100233.13;;;14.27;94.22
40940;BME280;26666;50.156;7.700;2023-05-01T12:46:20;100224.31;;;14.26;95.87
40940;BME280;26666;50.156;7.700;2023-05-01T12:51:22;100215.84;;;14.31;90.65
40940;BME280;26666;50.156;7.700;2023-05-01T12:56:27;100213.91;;;14.75;86.60
40940;BME280;26666;50.156;7.700;2023-05-01T13:01:30;100213.16;;;14.57;88.61
40940;BME280;26666;50.156;7.700;2023-05-01T13:06:32;100203.13;;;14.43;89.91
40940;BME280;26666;50.156;7.700;2023-05-01T13:11:35;100210.41;;;14.40;86.10
40940;BME280;26666;50.156;7.700;2023-05-01T13:16:44;100204.47;;;14.55;82.99
40940;BME280;26666;50.156;7.700;2023-05-01T13:21:48;100214.03;;;14.57;80.72
40940;BME280;26666;50.156;7.700;2023-05-01T13:26:56;100201.69;;;14.56;80.99
40940;BME280;26666;50.156;7.700;2023-05-01T13:32:02;100200.63;;;14.84;76.43
40940;BME280;26666;50.156;7.700;2023-05-01T13:37:08;100195.88;;;15.20;73.41
40940;BME280;26666;50.156;7.700;2023-05-01T13:42:14;100192.84;;;15.07;73.53
40940;BME280;26666;50.156;7.700;2023-05-01T13:47:24;100195.22;;;15.51;67.85
40940;BME280;26666;50.156;7.700;2023-05-01T13:52:26;100201.38;;;15.76;67.28
40940;BME280;26666;50.156;7.700;2023-05-01T13:57:29;100198.03;;;15.49;67.59
40940;BME280;26666;50.156;7.700;2023-05-01T14:02:36;100193.38;;;15.84;67.66
40940;BME280;26666;50.156;7.700;2023-05-01T14:07:44;100179.03;;;15.52;66.32
40940;BME280;26666;50.156;7.700;2023-05-01T14:12:54;100182.97;;;16.14;62.59
40940;BME280;26666;50.156;7.700;2023-05-01T14:18:02;100178.03;;;15.70;64.55
40940;BME280;26666;50.156;7.700;2023-05-01T14:23:05;100169.41;;;15.27;66.94
40940;BME280;26666;50.156;7.700;2023-05-01T14:28:06;100162.56;;;15.41;64.83
40940;BME280;26666;50.156;7.700;2023-05-01T14:33:11;100174.38;;;15.13;66.17
40940;BME280;26666;50.156;7.700;2023-05-01T14:38:15;100172.06;;;15.51;64.88
40940;BME280;26666;50.156;7.700;2023-05-01T14:43:18;100180.38;;;15.40;66.50
40940;BME280;26666;50.156;7.700;2023-05-01T14:48:23;100181.53;;;15.21;66.50
40940;BME280;26666;50.156;7.700;2023-05-01T14:53:25;100184.00;;;14.90;67.60
40940;BME280;26666;50.156;7.700;2023-05-01T14:58:27;100183.31;;;14.79;68.24
40940;BME280;26666;50.156;7.700;2023-05-01T15:03:30;100177.84;;;14.73;68.96
40940;BME280;26666;50.156;7.700;2023-05-01T15:08:32;100178.47;;;14.67;73.60
40940;BME280;26666;50.156;7.700;2023-05-01T15:13:34;100185.09;;;14.63;72.96
40940;BME280;26666;50.156;7.700;2023-05-01T15:18:37;100179.13;;;14.61;77.91
40940;BME280;26666;50.156;7.700;2023-05-01T15:23:39;100189.91;;;14.59;83.80
40940;BME280;26666;50.156;7.700;2023-05-01T15:28:41;100188.94;;;14.60;80.53
40940;BME280;26666;50.156;7.700;2023-05-01T15:33:44;100187.44;;;14.66;77.47
40940;BME280;26666;50.156;7.700;2023-05-01T15:38:46;100194.09;;;14.62;78.38
40940;BME280;26666;50.156;7.700;2023-05-01T15:43:47;100188.66;;;14.96;74.35
40940;BME280;26666;50.156;7.700;2023-05-01T15:48:54;100192.66;;;14.92;76.78
40940;BME280;26666;50.156;7.700;2023-05-01T15:53:55;100198.34;;;15.13;74.09
40940;BME280;26666;50.156;7.700;2023-05-01T15:59:00;100203.44;;;14.82;80.31
40940;BME280;26666;50.156;7.700;2023-05-01T16:04:04;100200.06;;;14.64;82.80
40940;BME280;26666;50.156;7.700;2023-05-01T16:09:06;100203.56;;;14.64;79.87
40940;BME280;26666;50.156;7.700;2023-05-01T16:14:09;100210.22;;;14.76;79.42
40940;BME280;26666;50.156;7.700;2023-05-01T16:19:14;100220.69;;;14.70;79.51
40940;BME280;26666;50.156;7.700;2023-05-01T16:24:16;100237.47;;;14.70;78.55
40940;BME280;26666;50.156;7.700;2023-05-01T16:29:18;100243.25;;;14.57;83.47
40940;BME280;26666;50.156;7.700;2023-05-01T16:34:23;100245.44;;;14.62;80.65
40940;BME280;26666;50.156;7.700;2023-05-01T16:39:24;100248.19;;;14.52;87.09
40940;BME280;26666;50.156;7.700;2023-05-01T16:44:26;100252.81;;;14.50;84.07
40940;BME280;26666;50.156;7.700;2023-05-01T16:49:29;100258.16;;;14.50;83.75
40940;BME280;26666;50.156;7.700;2023-05-01T16:54:31;100262.56;;;14.59;83.09
40940;BME280;26666;50.156;7.700;2023-05-01T16:59:33;100264.47;;;14.84;75.10
40940;BME280;26666;50.156;7.700;2023-05-01T17:04:36;100276.81;;;14.58;81.00
40940;BME280;26666;50.156;7.700;2023-05-01T17:09:37;100280.75;;;14.54;78.66
40940;BME280;26666;50.156;7.700;2023-05-01T17:20:13;100295.28;;;14.60;78.84
40940;BME280;26666;50.156;7.700;2023-05-01T17:25:16;100304.41;;;14.57;78.78
40940;BME280;26666;50.156;7.700;2023-05-01T17:30:18;100317.47;;;14.51;79.39
40940;BME280;26666;50.156;7.700;2023-05-01T17:35:21;100312.00;;;14.52;75.29
40940;BME280;26666;50.156;7.700;2023-05-01T17:40:23;100330.59;;;14.52;78.40
40940;BME280;26666;50.156;7.700;2023-05-01T17:45:25;100345.50;;;14.45;81.07
40940;BME280;26666;50.156;7.700;2023-05-01T17:50:28;100357.25;;;14.61;79.16
40940;BME280;26666;50.156;7.700;2023-05-01T17:55:30;100371.38;;;14.61;79.27
40940;BME280;26666;50.156;7.700;2023-05-01T18:00:32;100377.03;;;14.58;82.14
40940;BME280;26666;50.156;7.700;2023-05-01T18:05:35;100383.84;;;14.61;84.95
40940;BME280;26666;50.156;7.700;2023-05-01T18:10:36;100389.63;;;14.56;89.48
40940;BME280;26666;50.156;7.700;2023-05-01T18:15:38;100394.03;;;14.47;95.88
40940;BME280;26666;50.156;7.700;2023-05-01T18:20:41;100402.09;;;14.37;100.00
40940;BME280;26666;50.156;7.700;2023-05-01T18:25:43;100398.16;;;14.42;100.00
40940;BME280;26666;50.156;7.700;2023-05-01T18:30:44;100407.94;;;14.41;100.00
40940;BME280;26666;50.156;7.700;2023-05-01T18:35:48;100413.13;;;14.43;100.00
40940;BME280;26666;50.156;7.700;2023-05-01T18:40:49;100414.56;;;14.37;100.00
40940;BME280;26666;50.156;7.700;2023-05-01T18:45:53;100418.53;;;14.33;100.00
40940;BME280;26666;50.156;7.700;2023-05-01T18:50:56;100423.16;;;14.31;100.00
40940;BME280;26666;50.156;7.700;2023-05-01T18:56:09;100427.94;;;14.27;100.00
40940;BME280;26666;50.156;7.700;2023-05-01T19:01:11;100438.03;;;14.24;100.00
40940;BME280;26666;50.156;7.700;2023-05-01T19:06:14;100450.25;;;14.16;100.00
40940;BME280;26666;50.156;7.700;2023-05-01T19:11:16;100451.34;;;14.06;100.00
40940;BME280;26666;50.156;7.700;2023-05-01T19:16:17;100457.47;;;14.06;100.00
40940;BME280;26666;50.156;7.700;2023-05-01T19:21:21;100458.38;;;13.97;100.00
40940;BME280;26666;50.156;7.700;2023-05-01T19:26:22;100461.34;;;13.94;100.00
40940;BME280;26666;50.156;7.700;2023-05-01T19:31:24;100467.19;;;13.79;100.00
40940;BME280;26666;50.156;7.700;2023-05-01T19:36:27;100471.09;;;13.75;100.00
40940;BME280;26666;50.156;7.700;2023-05-01T19:41:29;100484.69;;;13.72;100.00
40940;BME280;26666;50.156;7.700;2023-05-01T19:46:30;100487.25;;;13.64;100.00
40940;BME280;26666;50.156;7.700;2023-05-01T19:51:36;100503.34;;;13.63;100.00
40940;BME280;26666;50.156;7.700;2023-05-01T19:56:37;100504.66;;;13.49;100.00
40940;BME280;26666;50.156;7.700;2023-05-01T20:01:39;100515.00;;;13.42;100.00
40940;BME280;26666;50.156;7.700;2023-05-01T20:06:42;100529.66;;;13.46;100.00
40940;BME280;26666;50.156;7.700;2023-05-01T20:11:44;100527.88;;;13.47;100.00
40940;BME280;26666;50.156;7.700;2023-05-01T20:16:46;100539.59;;;13.44;100.00
40940;BME280;26666;50.156;7.700;2023-05-01T20:21:49;100539.06;;;13.31;100.00
40940;BME280;26666;50.156;7.700;2023-05-01T20:26:51;100551.91;;;13.35;100.00
40940;BME280;26666;50.156;7.700;2023-05-01T20:31:53;100555.97;;;13.30;100.00
40940;BME280;26666;50.156;7.700;2023-05-01T20:36:56;100563.81;;;13.21;100.00
40940;BME280;26666;50.156;7.700;2023-05-01T20:41:57;100568.13;;;13.32;100.00
40940;BME280;26666;50.156;7.700;2023-05-01T20:46:59;100570.63;;;13.34;100.00
40940;BME280;26666;50.156;7.700;2023-05-01T20:52:02;100570.91;;;13.31;100.00
40940;BME280;26666;50.156;7.700;2023-05-01T20:57:04;100581.66;;;13.29;100.00
40940;BME280;26666;50.156;7.700;2023-05-01T21:02:06;100583.34;;;13.30;100.00
40940;BME280;26666;50.156;7.700;2023-05-01T21:07:09;100583.34;;;13.30;100.00
40940;BME280;26666;50.156;7.700;2023-05-01T21:12:11;100586.28;;;13.27;100.00
40940;BME280;26666;50.156;7.700;2023-05-01T21:17:13;100597.03;;;13.26;100.00
40940;BME280;26666;50.156;7.700;2023-05-01T21:22:20;100595.34;;;13.25;100.00
40940;BME280;26666;50.156;7.700;2023-05-01T21:27:22;100591.75;;;13.16;100.00
40940;BME280;26666;50.156;7.700;2023-05-01T21:32:27;100603.75;;;13.10;100.00
40940;BME280;26666;50.156;7.700;2023-05-01T21:37:31;100600.53;;;13.07;100.00
40940;BME280;26666;50.156;7.700;2023-05-01T21:42:34;100604.72;;;13.09;100.00
40940;BME280;26666;50.156;7.700;2023-05-01T21:47:38;100616.03;;;13.01;100.00
40940;BME280;26666;50.156;7.700;2023-05-01T21:52:43;100621.34;;;13.01;100.00
40940;BME280;26666;50.156;7.700;2023-05-01T21:57:45;100626.09;;;12.98;100.00
40940;BME280;26666;50.156;7.700;2023-05-01T22:02:47;100633.75;;;12.81;100.00
40940;BME280;26666;50.156;7.700;2023-05-01T22:07:51;100634.59;;;12.72;100.00
40940;BME280;26666;50.156;7.700;2023-05-01T22:12:53;100629.72;;;12.68;100.00
40940;BME280;26666;50.156;7.700;2023-05-01T22:17:55;100634.44;;;12.54;100.00
40940;BME280;26666;50.156;7.700;2023-05-01T22:22:58;100642.69;;;12.51;100.00
40940;BME280;26666;50.156;7.700;2023-05-01T22:28:00;100643.38;;;12.53;100.00
40940;BME280;26666;50.156;7.700;2023-05-01T22:33:01;100642.81;;;12.50;100.00
40940;BME280;26666;50.156;7.700;2023-05-01T22:38:05;100645.34;;;12.51;100.00
40940;BME280;26666;50.156;7.700;2023-05-01T22:43:07;100652.84;;;12.46;100.00
40940;BME280;26666;50.156;7.700;2023-05-01T22:48:08;100651.56;;;12.40;100.00
40940;BME280;26666;50.156;7.700;2023-05-01T22:53:11;100649.31;;;12.26;100.00
40940;BME280;26666;50.156;7.700;2023-05-01T22:58:13;100661.41;;;12.19;100.00
40940;BME280;26666;50.156;7.700;2023-05-01T23:03:15;100666.97;;;12.16;100.00
40940;BME280;26666;50.156;7.700;2023-05-01T23:08:22;100665.72;;;12.10;100.00
40940;BME280;26666;50.156;7.700;2023-05-01T23:13:24;100671.72;;;12.12;100.00
40940;BME280;26666;50.156;7.700;2023-05-01T23:18:29;100685.41;;;11.96;100.00
40940;BME280;26666;50.156;7.700;2023-05-01T23:23:34;100685.56;;;11.95;100.00
40940;BME280;26666;50.156;7.700;2023-05-01T23:28:39;100673.63;;;11.79;100.00
40940;BME280;26666;50.156;7.700;2023-05-01T23:33:42;100683.31;;;11.90;100.00
40940;BME280;26666;50.156;7.700;2023-05-01T23:38:45;100680.13;;;11.96;100.00
40940;BME280;26666;50.156;7.700;2023-05-01T23:43:47;100678.06;;;12.00;100.00
40940;BME280;26666;50.156;7.700;2023-05-01T23:48:49;100682.16;;;11.83;100.00
40940;BME280;26666;50.156;7.700;2023-05-01T23:53:52;100680.19;;;11.85;100.00
40940;BME280;26666;50.156;7.700;2023-05-01T23:58:53;100681.88;;;11.86;100.00
